createdAt,value
2019-05-10T00:00:10.748Z,98809.83
2019-05-10T00:02:35.165Z,98811.19
2019-05-10T00:04:59.239Z,98801.61
2019-05-10T00:07:23.743Z,98807.85
2019-05-10T00:09:29.310Z,98807.52
2019-05-10T00:11:44.343Z,98805.34
2019-05-10T00:14:02.884Z,98804.09
2019-05-10T00:16:09.659Z,98800.66
2019-05-10T00:18:16.067Z,98800.27
2019-05-10T00:20:22.485Z,98800.28
2019-05-10T00:22:28.874Z,98799.42
2019-05-10T00:24:35.359Z,98796.84
2019-05-10T00:26:41.911Z,98798.63
2019-05-10T00:28:48.472Z,98796.00
2019-05-10T00:30:55.077Z,98798.64
2019-05-10T00:33:01.558Z,98799.55
2019-05-10T00:35:08.330Z,98792.56
2019-05-10T00:37:14.780Z,98796.52
2019-05-10T00:39:21.213Z,98797.86
2019-05-10T00:41:27.668Z,98791.70
2019-05-10T00:43:34.198Z,98797.88
2019-05-10T00:45:40.630Z,98804.91
2019-05-10T00:47:47.096Z,98809.75
2019-05-10T00:49:53.553Z,98801.41
2019-05-10T00:52:00.187Z,98796.13
2019-05-10T00:54:06.787Z,98791.31
2019-05-10T00:56:13.251Z,98801.88
2019-05-10T00:58:19.737Z,98801.88
2019-05-10T01:00:26.119Z,98798.38
2019-05-10T01:02:32.503Z,98794.91
2019-05-10T01:04:39.026Z,98794.85
2019-05-10T01:06:45.564Z,98800.13
2019-05-10T01:08:51.956Z,98794.40
2019-05-10T01:10:58.373Z,98790.88
2019-05-10T01:13:04.825Z,98798.77
2019-05-10T01:15:11.929Z,98793.02
2019-05-10T01:17:18.427Z,98789.49
2019-05-10T01:19:24.835Z,98790.80
2019-05-10T01:21:32.371Z,98795.22
2019-05-10T01:23:38.793Z,98793.90
2019-05-10T01:25:45.230Z,98796.52
2019-05-10T01:27:51.621Z,98799.10
2019-05-10T01:29:58.076Z,98795.19
2019-05-10T01:32:04.615Z,98794.70
2019-05-10T01:34:11.008Z,98798.64
2019-05-10T01:36:17.652Z,98797.33
2019-05-10T01:38:24.109Z,98803.47
2019-05-10T01:40:30.595Z,98799.51
2019-05-10T01:42:37.003Z,98799.94
2019-05-10T01:44:43.390Z,98797.73
2019-05-10T01:46:49.926Z,98796.00
2019-05-10T01:48:56.426Z,98802.13
2019-05-10T01:51:02.970Z,98802.55
2019-05-10T01:53:09.441Z,98798.97
2019-05-10T01:55:16.087Z,98806.88
2019-05-10T01:57:22.493Z,98803.80
2019-05-10T01:59:28.894Z,98805.56
2019-05-10T02:01:35.390Z,98804.23
2019-05-10T02:03:41.877Z,98804.23
2019-05-10T02:05:49.160Z,98805.09
2019-05-10T02:07:55.581Z,98802.86
2019-05-10T02:10:01.975Z,98803.28
2019-05-10T02:12:08.432Z,98809.45
2019-05-10T02:14:15.079Z,98809.00
2019-05-10T02:16:21.506Z,98806.36
2019-05-10T02:18:28.061Z,98815.59
2019-05-10T02:20:34.478Z,98813.41
2019-05-10T02:22:40.876Z,98819.55
2019-05-10T02:24:47.479Z,98822.19
2019-05-10T02:26:53.898Z,98820.42
2019-05-10T02:29:00.400Z,98818.69
2019-05-10T02:31:06.801Z,98824.42
2019-05-10T02:33:13.261Z,98820.00
2019-05-10T02:35:20.012Z,98822.20
2019-05-10T02:37:26.549Z,98822.20
2019-05-10T02:39:33.063Z,98826.17
2019-05-10T02:41:39.589Z,98823.52
2019-05-10T02:43:46.152Z,98828.81
2019-05-10T02:45:52.754Z,98831.01
2019-05-10T02:47:59.310Z,98831.01
2019-05-10T02:50:07.779Z,98832.34
2019-05-10T02:52:14.255Z,98825.75
2019-05-10T02:54:20.931Z,98827.94
2019-05-10T02:56:31.363Z,98828.38
2019-05-10T02:58:39.159Z,98828.38
2019-05-10T03:00:49.064Z,98831.45
2019-05-10T03:02:58.178Z,98834.52
2019-05-10T03:05:05.933Z,98832.70
2019-05-10T03:07:12.253Z,98835.78
2019-05-10T03:09:20.419Z,98829.17
2019-05-10T03:11:31.591Z,98827.87
2019-05-10T03:13:40.079Z,98835.80
2019-05-10T03:15:50.711Z,98838.42
2019-05-10T03:17:58.247Z,98837.99
2019-05-10T03:20:04.988Z,98845.02
2019-05-10T03:22:11.537Z,98842.81
2019-05-10T03:24:18.482Z,98845.52
2019-05-10T03:26:24.880Z,98843.27
2019-05-10T03:28:31.830Z,98833.63
2019-05-10T03:30:38.464Z,98840.17
2019-05-10T03:32:44.874Z,98844.55
2019-05-10T03:34:51.403Z,98847.61
2019-05-10T03:36:58.867Z,98850.20
2019-05-10T03:39:06.882Z,98847.96
2019-05-10T03:41:13.406Z,98847.94
2019-05-10T03:43:19.897Z,98847.93
2019-05-10T03:45:26.370Z,98855.39
2019-05-10T03:47:32.752Z,98851.84
2019-05-10T03:49:39.186Z,98857.56
2019-05-10T03:51:45.577Z,98856.22
2019-05-10T03:53:52.187Z,98857.53
2019-05-10T03:55:58.612Z,98857.56
2019-05-10T03:58:05.064Z,98857.59
2019-05-10T04:00:13.888Z,98855.34
2019-05-10T04:02:20.613Z,98856.66
2019-05-10T04:04:27.360Z,98863.69
2019-05-10T04:06:34.130Z,98865.45
2019-05-10T04:08:41.198Z,98866.73
2019-05-10T04:10:47.803Z,98872.95
2019-05-10T04:12:54.290Z,98871.56
2019-05-10T04:15:00.980Z,98877.70
2019-05-10T04:17:08.951Z,98874.16
2019-05-10T04:19:15.382Z,98870.63
2019-05-10T04:21:21.835Z,98879.84
2019-05-10T04:23:30.001Z,98878.97
2019-05-10T04:25:36.407Z,98882.86
2019-05-10T04:27:42.833Z,98880.61
2019-05-10T04:29:49.358Z,98882.31
2019-05-10T04:31:55.767Z,98872.20
2019-05-10T04:34:02.196Z,98876.16
2019-05-10T04:36:12.249Z,98875.27
2019-05-10T04:38:16.861Z,98881.41
2019-05-10T04:40:23.285Z,98879.55
2019-05-10T04:42:32.785Z,98880.37
2019-05-10T04:44:39.437Z,98878.97
2019-05-10T04:46:46.016Z,98877.97
2019-05-10T04:48:53.597Z,98877.39
2019-05-10T04:51:00.798Z,98880.34
2019-05-10T04:53:09.509Z,98880.70
2019-05-10T04:55:18.773Z,98875.88
2019-05-10T04:57:25.325Z,98880.69
2019-05-10T04:59:31.741Z,98880.63
2019-05-10T05:01:38.138Z,98880.10
2019-05-10T05:03:44.546Z,98874.28
2019-05-10T05:05:51.116Z,98876.81
2019-05-10T05:07:57.659Z,98883.41
2019-05-10T05:10:06.185Z,98878.43
2019-05-10T05:12:12.611Z,98882.67
2019-05-10T05:14:19.082Z,98883.42
2019-05-10T05:16:25.460Z,98885.08
2019-05-10T05:18:31.883Z,98876.22
2019-05-10T05:20:38.277Z,98875.09
2019-05-10T05:22:44.747Z,98877.19
2019-05-10T05:24:55.124Z,98875.23
2019-05-10T05:26:59.492Z,98879.47
2019-05-10T05:29:06.061Z,98884.64
2019-05-10T05:31:12.745Z,98885.11
2019-05-10T05:33:19.135Z,98889.02
2019-05-10T05:35:25.602Z,98884.87
2019-05-10T05:37:32.102Z,98888.20
2019-05-10T05:39:38.494Z,98890.06
2019-05-10T05:41:49.107Z,98889.08
2019-05-10T05:43:53.214Z,98882.66
2019-05-10T05:45:59.613Z,98891.41
2019-05-10T05:48:07.215Z,98884.22
2019-05-10T05:50:14.059Z,98886.77
2019-05-10T05:52:20.475Z,98885.28
2019-05-10T05:54:26.917Z,98890.95
2019-05-10T05:56:33.484Z,98884.88
2019-05-10T05:58:44.775Z,98893.11
2019-05-10T06:00:48.299Z,98890.92
2019-05-10T06:02:54.806Z,98885.80
2019-05-10T06:05:01.272Z,98886.26
2019-05-10T06:07:07.657Z,98894.28
2019-05-10T06:09:14.079Z,98894.50
2019-05-10T06:11:20.471Z,98894.50
2019-05-10T06:13:30.353Z,98894.08
2019-05-10T06:15:35.258Z,98893.57
2019-05-10T06:17:41.680Z,98895.02
2019-05-10T06:19:48.048Z,98899.97
2019-05-10T06:21:58.151Z,98902.07
2019-05-10T06:24:07.536Z,98895.90
2019-05-10T06:26:21.342Z,98906.59
2019-05-10T06:28:27.033Z,98900.09
2019-05-10T06:30:30.625Z,98902.13
2019-05-10T06:32:37.223Z,98905.83
2019-05-10T06:34:43.652Z,98907.16
2019-05-10T06:36:50.126Z,98903.59
2019-05-10T06:38:56.585Z,98904.95
2019-05-10T06:41:03.004Z,98909.33
2019-05-10T06:43:13.294Z,98908.27
2019-05-10T06:45:18.955Z,98910.86
2019-05-10T06:47:25.374Z,98909.34
2019-05-10T06:49:31.808Z,98902.81
2019-05-10T06:51:42.746Z,98914.13
2019-05-10T06:53:52.055Z,98912.11
2019-05-10T06:55:54.674Z,98910.25
2019-05-10T06:58:01.066Z,98913.87
2019-05-10T07:00:09.172Z,98912.13
2019-05-10T07:02:20.117Z,98909.34
2019-05-10T07:04:23.618Z,98911.09
2019-05-10T07:06:30.258Z,98913.78
2019-05-10T07:08:44.303Z,98916.56
2019-05-10T07:10:44.750Z,98910.48
2019-05-10T07:12:51.379Z,98908.58
2019-05-10T07:15:03.333Z,98907.20
2019-05-10T07:17:07.607Z,98912.05
2019-05-10T07:19:14.236Z,98912.77
2019-05-10T07:21:20.667Z,98916.38
2019-05-10T07:23:30.115Z,98913.17
2019-05-10T07:25:37.925Z,98919.67
2019-05-10T07:27:44.246Z,98920.20
2019-05-10T07:29:51.000Z,98916.45
2019-05-10T07:31:57.536Z,98919.95
2019-05-10T07:34:04.066Z,98917.55
2019-05-10T07:36:14.803Z,98919.66
2019-05-10T07:38:23.863Z,98917.50
2019-05-10T07:40:26.810Z,98926.52
2019-05-10T07:42:33.282Z,98918.52
2019-05-10T07:44:41.546Z,98914.25
2019-05-10T07:46:54.308Z,98920.84
2019-05-10T07:48:55.909Z,98918.97
2019-05-10T07:51:02.348Z,98919.55
2019-05-10T07:53:08.738Z,98927.72
2019-05-10T07:55:18.639Z,98916.98
2019-05-10T07:57:24.665Z,98930.45
2019-05-10T07:59:49.406Z,98935.73
2019-05-10T08:01:40.685Z,98938.40
2019-05-10T08:03:52.199Z,98944.17
2019-05-10T08:05:58.926Z,98941.50
2019-05-10T08:08:03.495Z,98940.31
2019-05-10T08:10:11.116Z,98943.02
2019-05-10T08:12:19.446Z,98950.09
2019-05-10T08:14:25.685Z,98946.88
2019-05-10T08:16:32.185Z,98955.43
2019-05-10T08:18:41.992Z,98952.58
2019-05-10T08:20:54.066Z,98959.70
2019-05-10T08:22:55.255Z,98961.25
2019-05-10T08:25:02.329Z,98957.19
2019-05-10T08:27:14.068Z,98960.57
2019-05-10T08:29:18.224Z,98965.25
2019-05-10T08:31:26.379Z,98970.66
2019-05-10T08:33:34.066Z,98964.50
2019-05-10T08:35:45.923Z,98972.45
2019-05-10T08:37:49.220Z,98972.31
2019-05-10T08:39:56.241Z,98975.14
2019-05-10T08:42:13.637Z,98979.63
2019-05-10T08:44:19.133Z,98980.44
2019-05-10T08:46:19.432Z,98982.83
2019-05-10T08:48:27.795Z,98990.39
2019-05-10T08:50:48.833Z,98993.02
2019-05-10T08:52:42.639Z,98986.70
2019-05-10T08:54:50.068Z,98986.78
2019-05-10T08:57:01.055Z,98986.61
2019-05-10T08:59:09.302Z,98994.33
2019-05-10T09:01:25.919Z,98996.91
2019-05-10T09:03:22.784Z,98989.46
2019-05-10T09:05:31.458Z,98995.81
2019-05-10T09:07:39.125Z,99000.00
2019-05-10T09:09:49.676Z,99003.28
2019-05-10T09:11:57.670Z,99006.05
2019-05-10T09:14:03.204Z,99003.59
2019-05-10T09:16:09.938Z,99015.40
2019-05-10T09:18:16.319Z,99016.55
2019-05-10T09:20:26.504Z,99019.69
2019-05-10T09:22:33.942Z,99015.94
2019-05-10T09:24:41.000Z,99021.77
2019-05-10T09:26:54.901Z,99019.98
2019-05-10T09:28:57.686Z,99020.09
2019-05-10T09:31:17.063Z,99025.14
2019-05-10T09:33:14.343Z,99025.42
2019-05-10T09:35:22.177Z,99025.78
2019-05-10T09:37:28.599Z,99029.18
2019-05-10T09:39:35.092Z,99035.09
2019-05-10T09:41:42.195Z,99035.62
2019-05-10T09:43:50.727Z,99037.54
2019-05-10T09:45:58.019Z,99039.49
2019-05-10T09:48:04.501Z,99039.20
2019-05-10T09:50:12.629Z,99034.83
2019-05-10T09:52:19.378Z,99035.70
2019-05-10T09:54:29.390Z,99040.70
2019-05-10T09:56:42.065Z,99038.98
2019-05-10T09:58:42.107Z,99041.37
2019-05-10T10:00:48.692Z,99040.37
2019-05-10T10:02:56.938Z,99040.41
2019-05-10T10:05:07.526Z,99037.45
2019-05-10T10:07:13.855Z,99037.99
2019-05-10T10:09:24.726Z,99037.48
2019-05-10T10:11:28.407Z,99038.27
2019-05-10T10:13:43.071Z,99033.19
2019-05-10T10:15:42.948Z,99033.84
2019-05-10T10:17:49.376Z,99041.94
2019-05-10T10:19:57.864Z,99039.78
2019-05-10T10:22:05.546Z,99037.67
2019-05-10T10:24:17.259Z,99045.16
2019-05-10T10:26:22.371Z,99039.22
2019-05-10T10:28:28.705Z,99042.08
2019-05-10T10:30:37.286Z,99043.48
2019-05-10T10:32:44.627Z,99045.62
2019-05-10T10:34:54.747Z,99042.60
2019-05-10T10:37:00.504Z,99045.69
2019-05-10T10:39:08.579Z,99040.34
2019-05-10T10:41:17.068Z,99046.20
2019-05-10T10:43:23.212Z,99043.17
2019-05-10T10:45:29.609Z,99048.11
2019-05-10T10:47:38.044Z,99058.06
2019-05-10T10:49:44.324Z,99055.39
2019-05-10T10:51:50.718Z,99060.84
2019-05-10T10:53:58.091Z,99068.16
2019-05-10T10:56:07.469Z,99076.88
2019-05-10T10:58:13.028Z,99078.24
2019-05-10T11:00:32.896Z,99078.59
2019-05-10T11:02:41.548Z,99082.33
2019-05-10T11:04:48.992Z,99091.74
2019-05-10T11:07:09.366Z,99085.42
2019-05-10T11:09:05.842Z,99093.55
2019-05-10T11:11:12.244Z,99088.80
2019-05-10T11:13:29.018Z,99089.02
2019-05-10T11:15:28.995Z,99090.02
2019-05-10T11:17:35.050Z,99090.89
2019-05-10T11:19:41.828Z,99094.45
2019-05-10T11:21:48.336Z,99098.80
2019-05-10T11:23:54.750Z,99098.22
2019-05-10T11:26:01.430Z,99096.83
2019-05-10T11:28:11.850Z,99096.19
2019-05-10T11:30:18.594Z,99096.64
2019-05-10T11:32:24.977Z,99097.61
2019-05-10T11:34:37.593Z,99095.18
2019-05-10T11:36:40.526Z,99097.86
2019-05-10T11:38:56.588Z,99101.83
2019-05-10T11:40:55.741Z,99104.73
2019-05-10T11:43:02.162Z,99102.31
2019-05-10T11:45:11.091Z,99102.06
2019-05-10T11:47:24.050Z,99101.13
2019-05-10T11:49:25.505Z,99095.98
2019-05-10T11:51:31.935Z,99103.52
2019-05-10T11:53:38.353Z,99103.01
2019-05-10T11:55:44.746Z,99103.14
2019-05-10T11:58:01.946Z,99103.70
2019-05-10T11:59:59.386Z,99104.79
2019-05-10T12:02:10.384Z,99106.14
2019-05-10T12:04:28.785Z,99106.53
2019-05-10T12:06:23.085Z,99106.55
2019-05-10T12:08:29.468Z,99112.25
2019-05-10T12:10:41.185Z,99114.18
2019-05-10T12:12:59.870Z,99116.24
2019-05-10T12:14:53.975Z,99108.68
2019-05-10T12:17:05.732Z,99105.73
2019-05-10T12:19:17.105Z,99107.72
2019-05-10T12:21:16.357Z,99102.55
2019-05-10T12:23:30.233Z,99110.27
2019-05-10T12:25:47.072Z,99106.30
2019-05-10T12:27:45.268Z,99101.63
2019-05-10T12:29:55.449Z,99106.38
2019-05-10T12:31:57.059Z,99106.27
2019-05-10T12:34:09.092Z,99108.70
2019-05-10T12:36:22.365Z,99110.94
2019-05-10T12:38:23.523Z,99112.70
2019-05-10T12:40:28.421Z,99119.47
2019-05-10T12:42:34.821Z,99118.17
2019-05-10T12:44:43.957Z,99122.02
2019-05-10T12:46:53.755Z,99114.16
2019-05-10T12:48:57.495Z,99115.61
2019-05-10T12:51:08.192Z,99121.41
2019-05-10T12:53:17.383Z,99121.02
2019-05-10T12:55:21.322Z,99118.30
2019-05-10T12:57:27.740Z,99131.63
2019-05-10T12:59:34.814Z,99128.16
2019-05-10T13:01:42.364Z,99127.42
2019-05-10T13:03:48.776Z,99127.59
2019-05-10T13:05:55.168Z,99127.67
2019-05-10T13:08:01.568Z,99130.85
2019-05-10T13:10:10.681Z,99136.84
2019-05-10T13:12:17.101Z,99138.20
2019-05-10T13:14:23.501Z,99136.72
2019-05-10T13:16:29.930Z,99137.34
2019-05-10T13:18:50.663Z,99132.86
2019-05-10T13:20:44.394Z,99136.59
2019-05-10T13:22:50.893Z,99128.61
2019-05-10T13:24:57.271Z,99129.44
2019-05-10T13:27:03.761Z,99131.41
2019-05-10T13:29:10.586Z,99136.89
2019-05-10T13:45:17.319Z,99160.98
2019-05-10T13:47:23.777Z,99157.73
2019-05-10T13:49:30.270Z,99165.38
2019-05-10T13:51:36.681Z,99163.48
2019-05-10T13:53:43.215Z,99166.33
2019-05-10T13:55:50.820Z,99171.47
2019-05-10T13:57:57.397Z,99175.10
2019-05-10T14:00:08.069Z,99173.91
2019-05-10T14:02:14.634Z,99175.41
2019-05-10T14:04:23.136Z,99176.95
2019-05-10T14:06:29.301Z,99176.80
2019-05-10T14:08:37.003Z,99180.09
2019-05-10T14:10:43.539Z,99177.98
2019-05-10T14:12:50.250Z,99185.53
2019-05-10T14:15:02.364Z,99182.51
2019-05-10T14:17:04.854Z,99191.48
2019-05-10T14:19:15.953Z,99191.13
2019-05-10T14:21:19.811Z,99190.72
2019-05-10T14:23:29.156Z,99185.11
2019-05-10T14:25:38.973Z,99197.88
2019-05-10T14:27:45.608Z,99198.82
2019-05-10T14:29:54.269Z,99197.09
2019-05-10T14:32:00.733Z,99200.66
2019-05-10T14:34:15.742Z,99195.42
2019-05-10T14:36:15.527Z,99195.85
2019-05-10T14:38:22.928Z,99195.94
2019-05-10T14:40:30.795Z,99190.31
2019-05-10T14:42:37.521Z,99181.55
2019-05-10T14:44:44.118Z,99192.16
2019-05-10T14:46:50.642Z,99184.23
2019-05-10T14:48:57.089Z,99184.16
2019-05-10T14:51:11.008Z,99181.02
2019-05-10T14:53:11.749Z,99180.39
2019-05-10T14:55:18.163Z,99175.14
2019-05-10T14:57:24.598Z,99180.97
2019-05-10T14:59:31.075Z,99185.00
2019-05-10T15:01:42.924Z,99178.73
2019-05-10T15:03:47.366Z,99177.63
2019-05-10T15:05:56.499Z,99175.84
2019-05-10T15:08:02.341Z,99180.58
2019-05-10T15:10:09.277Z,99176.58
2019-05-10T15:12:21.928Z,99178.84
2019-05-10T15:14:23.927Z,99181.28
2019-05-10T15:16:30.986Z,99177.59
2019-05-10T15:18:37.525Z,99183.64
2019-05-10T15:20:44.002Z,99190.15
2019-05-10T15:22:50.493Z,99185.89
2019-05-10T15:24:57.034Z,99181.84
2019-05-10T15:27:03.420Z,99180.28
2019-05-10T15:29:14.858Z,99184.45
2019-05-10T15:31:18.187Z,99187.67
2019-05-10T15:33:24.718Z,99185.42
2019-05-10T15:35:31.140Z,99186.38
2019-05-10T15:37:40.854Z,99188.55
2019-05-10T15:39:45.956Z,99187.94
2019-05-10T15:41:53.637Z,99190.88
2019-05-10T15:44:00.662Z,99193.30
2019-05-10T15:46:07.292Z,99201.91
2019-05-10T15:48:13.754Z,99197.80
2019-05-10T15:50:20.674Z,99198.06
2019-05-10T15:52:27.170Z,99194.33
2019-05-10T15:54:38.279Z,99192.12
2019-05-10T15:56:44.004Z,99198.78
2019-05-10T15:58:49.974Z,99195.47
2019-05-10T16:00:56.354Z,99192.92
2019-05-10T16:03:02.946Z,99202.55
2019-05-10T16:05:25.630Z,99206.66
2019-05-10T16:07:18.005Z,99204.58
2019-05-10T16:09:24.442Z,99210.02
2019-05-10T16:11:30.843Z,99204.06
2019-05-10T16:13:37.276Z,99198.08
2019-05-10T16:15:43.710Z,99198.41
2019-05-10T16:17:57.748Z,99203.13
2019-05-10T16:20:00.200Z,99206.33
2019-05-10T16:22:06.469Z,99213.33
2019-05-10T16:24:13.562Z,99212.88
2019-05-10T16:26:22.810Z,99219.14
2019-05-10T16:28:28.336Z,99218.66
2019-05-10T16:30:36.619Z,99217.35
2019-05-10T16:32:43.095Z,99216.58
2019-05-10T16:34:49.662Z,99221.16
2019-05-10T16:36:56.264Z,99219.94
2019-05-10T16:39:02.723Z,99220.98
2019-05-10T16:41:09.651Z,99221.17
2019-05-10T16:43:22.211Z,99230.48
2019-05-10T16:45:24.458Z,99228.41
2019-05-10T16:47:32.254Z,99232.40
2019-05-10T16:49:38.749Z,99231.20
2019-05-10T16:51:47.658Z,99232.59
2019-05-10T16:53:53.381Z,99229.61
2019-05-10T16:56:01.542Z,99232.88
2019-05-10T16:58:09.584Z,99234.81
2019-05-10T17:00:19.007Z,99235.38
2019-05-10T17:02:25.515Z,99241.66
2019-05-10T17:04:37.302Z,99237.37
2019-05-10T17:06:40.670Z,99240.17
2019-05-10T17:08:48.442Z,99246.00
2019-05-10T17:10:54.838Z,99245.61
2019-05-10T17:13:05.079Z,99251.45
2019-05-10T17:15:09.810Z,99257.39
2019-05-10T17:17:16.204Z,99258.83
2019-05-10T17:19:27.782Z,99259.82
2019-05-10T17:21:30.837Z,99259.88
2019-05-10T17:23:41.623Z,99258.25
2019-05-10T17:25:47.432Z,99258.30
2019-05-10T17:27:57.407Z,99262.80
2019-05-10T17:30:02.188Z,99267.25
2019-05-10T17:32:08.637Z,99269.05
2019-05-10T17:34:25.753Z,99267.86
2019-05-10T17:36:23.303Z,99271.04
2019-05-10T17:38:31.714Z,99271.14
2019-05-10T17:40:42.268Z,99269.01
2019-05-10T17:42:46.210Z,99273.08
2019-05-10T17:44:55.270Z,99273.20
2019-05-10T17:47:02.073Z,99270.19
2019-05-10T17:49:08.736Z,99273.89
2019-05-10T17:51:15.244Z,99274.05
2019-05-10T17:53:21.713Z,99274.12
2019-05-10T17:55:28.135Z,99270.79
2019-05-10T17:57:34.524Z,99270.52
2019-05-10T17:59:41.075Z,99271.05
2019-05-10T18:01:47.595Z,99275.71
2019-05-10T18:03:54.097Z,99281.56
2019-05-10T18:06:00.697Z,99275.97
2019-05-10T18:08:07.310Z,99280.51
2019-05-10T18:10:14.198Z,99277.06
2019-05-10T18:12:26.126Z,99277.60
2019-05-10T18:14:29.608Z,99279.88
2019-05-10T18:16:36.255Z,99275.59
2019-05-10T18:18:46.674Z,99270.88
2019-05-10T18:20:50.893Z,99271.00
2019-05-10T18:22:57.358Z,99281.20
2019-05-10T18:25:13.248Z,99283.89
2019-05-10T18:27:15.987Z,99284.34
2019-05-10T18:29:22.389Z,99283.92
2019-05-10T18:31:28.873Z,99283.07
2019-05-10T18:33:35.344Z,99280.94
2019-05-10T18:35:41.940Z,99288.05
2019-05-10T18:37:53.534Z,99280.20
2019-05-10T18:39:57.934Z,99288.19
2019-05-10T18:42:04.541Z,99287.37
2019-05-10T18:44:14.208Z,99293.13
2019-05-10T18:46:19.069Z,99297.13
2019-05-10T18:48:25.550Z,99295.88
2019-05-10T18:50:31.955Z,99302.05
2019-05-10T18:52:38.601Z,99295.91
2019-05-10T18:54:45.042Z,99305.22
2019-05-10T18:56:51.529Z,99307.89
2019-05-10T18:59:06.830Z,99310.59
2019-05-10T19:01:06.219Z,99313.69
2019-05-10T19:03:12.920Z,99311.06
2019-05-10T19:05:19.627Z,99312.88
2019-05-10T19:07:26.195Z,99314.20
2019-05-10T19:09:32.653Z,99315.55
2019-05-10T19:11:40.741Z,99310.31
2019-05-10T19:13:53.670Z,99308.13
2019-05-10T19:15:58.518Z,99317.83
2019-05-10T19:18:04.018Z,99320.52
2019-05-10T19:20:16.357Z,99323.61
2019-05-10T19:22:18.918Z,99321.42
2019-05-10T19:24:30.601Z,99325.86
2019-05-10T19:26:33.722Z,99328.06
2019-05-10T19:28:40.215Z,99327.19
2019-05-10T19:30:46.688Z,99323.67
2019-05-10T19:32:56.456Z,99332.52
2019-05-10T19:35:01.431Z,99329.84
2019-05-10T19:37:08.091Z,99330.73
2019-05-10T19:39:14.621Z,99326.36
2019-05-10T19:41:25.572Z,99336.05
2019-05-10T19:43:29.354Z,99326.37
2019-05-10T19:45:35.964Z,99330.80
2019-05-10T19:47:42.344Z,99328.60
2019-05-10T19:49:51.646Z,99335.64
2019-05-10T19:51:56.974Z,99335.20
2019-05-10T19:54:03.646Z,99332.13
2019-05-10T19:56:10.131Z,99329.92
2019-05-10T19:58:16.646Z,99322.03
2019-05-10T20:00:23.376Z,99325.55
2019-05-10T20:02:29.895Z,99328.63
2019-05-10T20:04:36.347Z,99329.51
2019-05-10T20:06:43.150Z,99331.27
2019-05-10T20:08:49.546Z,99333.91
2019-05-10T20:10:56.136Z,99338.30
2019-05-10T20:13:02.616Z,99342.27
2019-05-10T20:15:13.084Z,99340.52
2019-05-10T20:17:19.749Z,99344.44
2019-05-10T20:19:26.296Z,99338.28
2019-05-10T20:21:32.765Z,99340.04
2019-05-10T20:23:39.150Z,99343.15
2019-05-10T20:25:45.616Z,99344.46
2019-05-10T20:27:52.160Z,99333.47
2019-05-10T20:29:58.669Z,99333.05
2019-05-10T20:32:05.263Z,99341.84
2019-05-10T20:34:11.798Z,99344.48
2019-05-10T20:36:18.311Z,99342.72
2019-05-10T20:38:24.714Z,99338.78
2019-05-10T20:40:31.325Z,99341.42
2019-05-10T20:42:37.789Z,99343.17
2019-05-10T20:44:44.304Z,99351.08
2019-05-10T20:46:51.147Z,99347.56
2019-05-10T20:48:57.540Z,99348.02
2019-05-10T20:51:03.996Z,99350.66
2019-05-10T20:53:10.379Z,99356.80
2019-05-10T20:55:17.245Z,99356.80
2019-05-10T20:57:23.855Z,99361.63
2019-05-10T20:59:30.379Z,99363.82
2019-05-10T21:01:36.911Z,99362.09
2019-05-10T21:03:43.412Z,99362.96
2019-05-10T21:05:49.871Z,99360.30
2019-05-10T21:07:56.276Z,99366.47
2019-05-10T21:10:02.887Z,99364.26
2019-05-10T21:12:09.582Z,99363.83
2019-05-10T21:14:16.105Z,99370.86
2019-05-10T21:16:22.710Z,99374.36
2019-05-10T21:18:29.127Z,99373.48
2019-05-10T21:20:35.617Z,99376.13
2019-05-10T21:22:42.081Z,99373.02
2019-05-10T21:24:48.718Z,99374.34
2019-05-10T21:26:55.240Z,99369.05
2019-05-10T21:29:01.630Z,99367.74
2019-05-10T21:31:08.138Z,99371.23
2019-05-10T21:33:14.600Z,99373.84
2019-05-10T21:35:21.061Z,99376.48
2019-05-10T21:37:28.481Z,99371.19
2019-05-10T21:39:35.213Z,99376.89
2019-05-10T21:41:41.663Z,99374.67
2019-05-10T21:43:48.218Z,99368.53
2019-05-10T21:45:54.670Z,99370.30
2019-05-10T21:48:01.089Z,99367.23
2019-05-10T21:50:08.075Z,99367.67
2019-05-10T21:52:14.614Z,99369.41
2019-05-10T21:54:21.048Z,99365.04
2019-05-10T21:56:27.576Z,99365.93
2019-05-10T21:58:33.963Z,99367.26
2019-05-10T22:00:50.017Z,99367.26
2019-05-10T22:02:58.079Z,99366.83
2019-05-10T22:05:05.990Z,99371.65
2019-05-10T22:07:12.769Z,99363.30
2019-05-10T22:09:19.196Z,99366.83
2019-05-10T22:11:26.201Z,99359.78
2019-05-10T22:13:32.624Z,99365.03
2019-05-10T22:15:39.227Z,99357.99
2019-05-10T22:17:45.681Z,99362.39
2019-05-10T22:19:52.289Z,99360.22
2019-05-10T22:21:58.755Z,99357.61
2019-05-10T22:24:05.649Z,99352.36
2019-05-10T22:26:12.177Z,99356.76
2019-05-10T22:28:18.573Z,99354.14
2019-05-10T22:30:25.189Z,99356.77
2019-05-10T22:32:31.610Z,99358.97
2019-05-10T22:34:37.995Z,99358.11
2019-05-10T22:36:44.389Z,99347.56
2019-05-10T22:39:05.657Z,99348.43
2019-05-10T22:40:59.060Z,99362.04
2019-05-10T22:43:05.688Z,99354.13
2019-05-10T22:45:13.457Z,99354.13
2019-05-10T22:47:19.921Z,99353.71
2019-05-10T22:49:26.361Z,99356.77
2019-05-10T22:51:32.760Z,99354.98
2019-05-10T22:53:39.145Z,99359.82
2019-05-10T22:55:45.627Z,99362.42
2019-05-10T22:57:52.029Z,99365.48
2019-05-10T22:59:58.428Z,99363.27
2019-05-10T23:02:05.023Z,99367.21
2019-05-10T23:04:11.480Z,99358.44
2019-05-10T23:06:18.955Z,99353.58
2019-05-10T23:08:26.531Z,99355.75
2019-05-10T23:10:33.174Z,99361.02
2019-05-10T23:12:39.741Z,99364.11
2019-05-10T23:14:46.283Z,99357.97
2019-05-10T23:16:52.788Z,99362.78
2019-05-10T23:18:59.196Z,99357.94
2019-05-10T23:21:05.741Z,99363.63
2019-05-10T23:23:12.150Z,99360.54
2019-05-10T23:25:18.585Z,99362.72
2019-05-10T23:27:24.971Z,99366.69
2019-05-10T23:29:31.360Z,99368.86
2019-05-10T23:31:37.788Z,99364.03
2019-05-10T23:33:44.259Z,99362.71
2019-05-10T23:35:50.655Z,99361.81
2019-05-10T23:37:57.043Z,99359.58
2019-05-10T23:40:04.692Z,99364.83
2019-05-10T23:42:11.262Z,99362.17
2019-05-10T23:44:17.665Z,99357.76
2019-05-10T23:46:24.170Z,99355.13
2019-05-10T23:48:30.567Z,99353.34
2019-05-10T23:50:36.937Z,99362.09
2019-05-10T23:52:43.436Z,99362.50
2019-05-10T23:54:49.889Z,99361.63
2019-05-10T23:56:56.295Z,99359.82
2019-05-10T23:59:02.734Z,99358.47
